createdAt,value
2019-04-23T00:00:03.767Z,14.40
2019-04-23T00:01:08.054Z,14.26
2019-04-23T00:02:03.974Z,14.28
2019-04-23T00:02:58.851Z,14.30
2019-04-23T00:04:01.069Z,14.29
2019-04-23T00:04:59.539Z,14.25
2019-04-23T00:06:08.541Z,14.32
2019-04-23T00:07:13.014Z,14.36
2019-04-23T00:08:07.392Z,14.29
2019-04-23T00:09:07.671Z,14.30
2019-04-23T00:10:06.550Z,14.23
2019-04-23T00:11:08.800Z,14.22
2019-04-23T00:12:01.804Z,14.19
2019-04-23T00:12:59.144Z,14.22
2019-04-23T00:14:07.097Z,14.19
2019-04-23T00:15:24.040Z,14.22
2019-04-23T00:16:10.762Z,14.28
2019-04-23T00:17:11.606Z,14.29
2019-04-23T00:18:04.150Z,14.20
2019-04-23T00:18:56.157Z,14.19
2019-04-23T00:21:11.725Z,14.10
2019-04-23T00:21:57.343Z,14.10
2019-04-23T00:23:05.099Z,14.13
2019-04-23T00:24:10.055Z,14.18
2019-04-23T00:25:34.476Z,14.14
2019-04-23T00:26:00.284Z,14.10
2019-04-23T00:27:19.663Z,14.03
2019-04-23T00:28:07.875Z,14.11
2019-04-23T00:29:05.393Z,14.13
2019-04-23T00:30:18.856Z,14.05
2019-04-23T00:31:11.848Z,14.07
2019-04-23T00:32:05.094Z,14.00
2019-04-23T00:33:07.417Z,14.03
2019-04-23T00:34:04.881Z,14.10
2019-04-23T00:35:00.634Z,14.05
2019-04-23T00:36:02.711Z,14.03
2019-04-23T00:37:06.514Z,14.05
2019-04-23T00:38:09.107Z,14.05
2019-04-23T00:39:17.307Z,14.10
2019-04-23T00:39:57.721Z,14.08
2019-04-23T00:41:02.977Z,14.04
2019-04-23T00:42:10.311Z,14.04
2019-04-23T00:43:01.976Z,14.04
2019-04-23T00:44:04.196Z,13.92
2019-04-23T00:45:18.139Z,13.92
2019-04-23T00:45:59.797Z,13.96
2019-04-23T00:47:00.994Z,14.04
2019-04-23T00:48:02.998Z,13.93
2019-04-23T00:49:05.420Z,14.05
2019-04-23T00:50:15.989Z,13.93
2019-04-23T00:50:58.571Z,13.95
2019-04-23T00:52:12.608Z,13.92
2019-04-23T00:53:12.606Z,13.96
2019-04-23T00:54:09.477Z,13.90
2019-04-23T00:55:12.453Z,13.90
2019-04-23T00:56:22.093Z,13.96
2019-04-23T00:57:09.041Z,13.86
2019-04-23T00:58:07.655Z,13.89
2019-04-23T00:59:00.414Z,13.86
2019-04-23T01:00:10.351Z,13.86
2019-04-23T01:01:00.431Z,13.89
2019-04-23T01:02:05.702Z,13.95
2019-04-23T01:04:02.335Z,13.83
2019-04-23T01:05:10.302Z,13.92
2019-04-23T01:05:58.845Z,13.83
2019-04-23T01:08:06.827Z,13.77
2019-04-23T01:09:02.143Z,13.83
2019-04-23T01:10:10.616Z,13.74
2019-04-23T01:11:16.356Z,13.78
2019-04-23T01:12:03.896Z,13.80
2019-04-23T01:15:02.492Z,13.75
2019-04-23T01:16:21.247Z,13.80
2019-04-23T01:17:06.061Z,13.83
2019-04-23T01:18:14.247Z,13.80
2019-04-23T01:19:18.930Z,13.74
2019-04-23T01:20:04.825Z,13.78
2019-04-23T01:20:53.669Z,13.75
2019-04-23T01:21:41.173Z,13.74
2019-04-23T01:22:40.190Z,13.68
2019-04-23T01:23:47.155Z,13.70
2019-04-23T01:24:43.805Z,13.64
2019-04-23T01:25:51.347Z,13.70
2019-04-23T01:27:16.393Z,13.72
2019-04-23T01:28:02.135Z,13.72
2019-04-23T01:29:06.743Z,13.60
2019-04-23T01:30:12.433Z,13.57
2019-04-23T01:31:09.179Z,13.57
2019-04-23T01:32:08.638Z,13.53
2019-04-23T01:33:02.612Z,13.56
2019-04-23T01:34:11.117Z,13.63
2019-04-23T01:35:15.482Z,13.55
2019-04-23T01:36:16.192Z,13.52
2019-04-23T01:37:07.754Z,13.56
2019-04-23T01:38:09.644Z,13.57
2019-04-23T01:39:08.252Z,13.53
2019-04-23T01:39:57.911Z,13.55
2019-04-23T01:41:09.554Z,13.59
2019-04-23T01:42:11.829Z,13.60
2019-04-23T01:43:04.317Z,13.59
2019-04-23T01:43:58.219Z,13.57
2019-04-23T01:45:07.037Z,13.52
2019-04-23T01:46:07.941Z,13.55
2019-04-23T01:47:15.053Z,13.52
2019-04-23T01:48:00.109Z,13.49
2019-04-23T01:49:07.812Z,13.47
2019-04-23T01:50:21.326Z,13.46
2019-04-23T01:52:08.206Z,13.43
2019-04-23T01:53:08.588Z,13.43
2019-04-23T01:54:06.966Z,13.35
2019-04-23T01:55:08.244Z,13.41
2019-04-23T01:56:09.147Z,13.30
2019-04-23T01:57:13.631Z,13.27
2019-04-23T01:58:20.712Z,13.30
2019-04-23T01:59:05.085Z,13.30
2019-04-23T02:00:14.070Z,13.26
2019-04-23T02:01:08.554Z,13.24
2019-04-23T02:02:05.225Z,13.26
2019-04-23T02:04:16.504Z,13.31
2019-04-23T02:05:09.758Z,13.19
2019-04-23T02:06:06.703Z,13.15
2019-04-23T02:07:06.242Z,13.19
2019-04-23T02:09:10.952Z,13.29
2019-04-23T02:10:16.793Z,13.27
2019-04-23T02:11:02.977Z,13.24
2019-04-23T02:12:07.416Z,13.21
2019-04-23T02:13:14.151Z,13.26
2019-04-23T02:14:09.454Z,13.27
2019-04-23T02:15:11.524Z,13.24
2019-04-23T02:16:10.191Z,13.27
2019-04-23T02:17:00.193Z,13.19
2019-04-23T02:18:05.490Z,13.15
2019-04-23T02:19:12.948Z,13.11
2019-04-23T02:20:14.185Z,13.15
2019-04-23T02:22:08.839Z,13.13
2019-04-23T02:23:11.375Z,13.12
2019-04-23T02:24:03.645Z,13.13
2019-04-23T02:25:09.582Z,13.26
2019-04-23T02:26:04.794Z,13.26
2019-04-23T02:27:09.834Z,13.24
2019-04-23T02:28:10.003Z,13.29
2019-04-23T02:29:13.301Z,13.26
2019-04-23T02:31:29.695Z,13.30
2019-04-23T02:33:29.418Z,13.21
2019-04-23T02:37:13.428Z,13.24
2019-04-23T02:38:27.310Z,13.24
2019-04-23T02:39:02.769Z,13.22
2019-04-23T02:40:17.039Z,13.15
2019-04-23T02:41:27.659Z,13.15
2019-04-23T02:42:30.864Z,13.12
2019-04-23T02:43:15.233Z,13.12
2019-04-23T02:45:10.351Z,13.12
2019-04-23T02:46:08.171Z,13.15
2019-04-23T02:48:19.806Z,13.03
2019-04-23T02:50:34.669Z,12.98
2019-04-23T02:51:10.879Z,12.96
2019-04-23T02:53:18.118Z,12.93
2019-04-23T02:56:18.896Z,12.75
2019-04-23T02:57:09.334Z,12.87
2019-04-23T02:58:21.358Z,12.83
2019-04-23T02:59:18.974Z,12.85
2019-04-23T03:00:18.943Z,12.88
2019-04-23T03:01:21.984Z,12.78
2019-04-23T03:02:30.384Z,12.85
2019-04-23T03:03:14.247Z,12.90
2019-04-23T03:06:14.579Z,12.79
2019-04-23T03:07:14.072Z,12.76
2019-04-23T03:08:07.447Z,12.79
2019-04-23T03:09:18.821Z,12.83
2019-04-23T03:12:18.384Z,12.75
2019-04-23T03:13:19.839Z,12.64
2019-04-23T03:14:23.272Z,12.69
2019-04-23T03:15:23.768Z,12.69
2019-04-23T03:16:15.812Z,12.61
2019-04-23T03:17:03.408Z,12.65
2019-04-23T03:19:09.660Z,12.68
2019-04-23T03:20:14.873Z,12.61
2019-04-23T03:26:28.707Z,12.71
2019-04-23T03:28:23.126Z,12.60
2019-04-23T03:32:51.988Z,12.55
2019-04-23T03:34:19.674Z,12.51
2019-04-23T03:35:09.291Z,12.58
2019-04-23T03:37:20.336Z,12.47
2019-04-23T03:38:20.430Z,12.47
2019-04-23T03:38:56.063Z,12.43
2019-04-23T03:41:21.046Z,12.51
2019-04-23T03:42:09.861Z,12.42
2019-04-23T03:44:06.696Z,12.40
2019-04-23T03:45:17.274Z,12.45
2019-04-23T03:48:17.981Z,12.42
2019-04-23T03:49:07.139Z,12.45
2019-04-23T03:50:14.812Z,12.46
2019-04-23T03:51:11.829Z,12.50
2019-04-23T03:53:22.564Z,12.36
2019-04-23T03:55:11.724Z,12.38
2019-04-23T03:56:22.320Z,12.33
2019-04-23T03:57:18.466Z,12.40
2019-04-23T03:58:12.186Z,12.35
2019-04-23T04:00:31.062Z,12.35
2019-04-23T04:01:19.722Z,12.39
2019-04-23T04:02:30.765Z,12.38
2019-04-23T04:05:20.553Z,12.33
2019-04-23T04:06:23.553Z,12.36
2019-04-23T04:10:05.056Z,12.25
2019-04-23T04:12:14.311Z,12.25
2019-04-23T04:13:20.044Z,12.20
2019-04-23T04:14:54.487Z,12.25
2019-04-23T04:15:24.436Z,12.18
2019-04-23T04:16:12.023Z,12.18
2019-04-23T04:19:16.548Z,12.21
2019-04-23T04:20:17.807Z,12.22
2019-04-23T04:21:14.341Z,12.27
2019-04-23T04:22:23.840Z,12.22
2019-04-23T04:23:17.611Z,12.20
2019-04-23T04:25:19.286Z,12.21
2019-04-23T04:26:13.905Z,12.17
2019-04-23T04:28:17.828Z,12.17
2019-04-23T04:29:10.794Z,12.06
2019-04-23T04:30:27.722Z,12.10
2019-04-23T04:31:30.973Z,12.10
2019-04-23T04:32:15.121Z,12.09
2019-04-23T04:33:16.688Z,12.05
2019-04-23T04:34:22.285Z,12.13
2019-04-23T04:36:14.273Z,12.17
2019-04-23T04:37:36.199Z,12.18
2019-04-23T04:38:34.929Z,12.17
2019-04-23T04:39:10.070Z,12.10
2019-04-23T04:40:33.066Z,12.09
2019-04-23T04:42:11.393Z,12.15
2019-04-23T04:45:13.653Z,12.22
2019-04-23T04:47:15.540Z,12.13
2019-04-23T04:48:00.478Z,12.21
2019-04-23T04:49:11.933Z,12.06
2019-04-23T04:52:24.265Z,12.15
2019-04-23T04:54:13.928Z,12.02
2019-04-23T04:55:19.506Z,12.15
2019-04-23T04:58:12.816Z,12.09
2019-04-23T04:59:22.876Z,12.15
2019-04-23T05:01:22.413Z,12.20
2019-04-23T05:02:14.488Z,12.14
2019-04-23T05:03:19.440Z,12.17
2019-04-23T05:04:18.274Z,12.10
2019-04-23T05:05:28.942Z,12.03
2019-04-23T05:06:15.701Z,12.10
2019-04-23T05:07:09.305Z,12.18
2019-04-23T05:08:13.828Z,12.07
2019-04-23T05:09:17.084Z,12.13
2019-04-23T05:10:16.562Z,12.09
2019-04-23T05:13:22.248Z,12.20
2019-04-23T05:14:05.872Z,12.18
2019-04-23T05:15:07.368Z,12.22
2019-04-23T05:16:07.701Z,12.20
2019-04-23T05:17:18.294Z,12.18
2019-04-23T05:19:15.515Z,12.15
2019-04-23T05:21:03.648Z,12.17
2019-04-23T05:23:15.816Z,12.20
2019-04-23T05:24:21.406Z,12.32
2019-04-23T05:24:57.146Z,12.35
2019-04-23T05:26:13.464Z,12.43
2019-04-23T05:27:02.456Z,12.32
2019-04-23T05:28:07.707Z,12.46
2019-04-23T05:30:07.763Z,12.51
2019-04-23T05:31:06.535Z,12.50
2019-04-23T05:32:02.544Z,12.58
2019-04-23T05:34:06.076Z,12.60
2019-04-23T05:35:04.721Z,12.61
2019-04-23T05:37:06.151Z,12.61
2019-04-23T05:39:11.697Z,12.61
2019-04-23T05:40:08.745Z,12.69
2019-04-23T05:41:11.102Z,12.61
2019-04-23T05:42:00.609Z,12.57
2019-04-23T05:43:03.337Z,12.63
2019-04-23T05:44:10.307Z,12.61
2019-04-23T05:45:08.380Z,12.68
2019-04-23T05:46:04.422Z,12.71
2019-04-23T05:47:11.459Z,12.69
2019-04-23T05:48:13.205Z,12.64
2019-04-23T05:49:09.394Z,12.73
2019-04-23T05:50:15.482Z,12.73
2019-04-23T05:52:02.150Z,12.65
2019-04-23T05:53:04.194Z,12.78
2019-04-23T05:54:06.780Z,12.76
2019-04-23T05:55:02.635Z,12.83
2019-04-23T05:56:06.513Z,12.78
2019-04-23T05:57:09.901Z,12.78
2019-04-23T05:58:14.549Z,12.71
2019-04-23T05:59:07.154Z,12.87
2019-04-23T06:00:04.053Z,12.83
2019-04-23T06:01:22.187Z,12.93
2019-04-23T06:03:11.311Z,12.96
2019-04-23T06:05:05.965Z,13.11
2019-04-23T06:06:10.825Z,13.21
2019-04-23T06:07:15.250Z,13.21
2019-04-23T06:08:03.060Z,13.21
2019-04-23T06:09:11.232Z,13.11
2019-04-23T06:10:04.973Z,13.13
2019-04-23T06:11:11.811Z,13.18
2019-04-23T06:12:02.862Z,13.24
2019-04-23T06:13:06.604Z,13.37
2019-04-23T06:14:16.975Z,13.30
2019-04-23T06:15:05.622Z,13.45
2019-04-23T06:16:12.277Z,13.41
2019-04-23T06:17:03.695Z,13.46
2019-04-23T06:18:11.994Z,13.45
2019-04-23T06:19:08.003Z,13.53
2019-04-23T06:20:00.540Z,13.55
2019-04-23T06:21:10.078Z,13.55
2019-04-23T06:22:30.082Z,13.60
2019-04-23T06:23:11.249Z,13.57
2019-04-23T06:24:10.369Z,13.57
2019-04-23T06:25:30.789Z,13.67
2019-04-23T06:27:08.710Z,13.70
2019-04-23T06:28:08.871Z,13.74
2019-04-23T06:29:06.760Z,13.82
2019-04-23T06:30:04.603Z,13.77
2019-04-23T06:32:02.251Z,13.77
2019-04-23T06:33:05.839Z,13.83
2019-04-23T06:34:12.085Z,13.90
2019-04-23T06:35:13.881Z,13.95
2019-04-23T06:36:07.565Z,13.88
2019-04-23T06:37:05.315Z,13.93
2019-04-23T06:38:22.968Z,13.95
2019-04-23T06:40:00.399Z,14.14
2019-04-23T06:41:06.223Z,14.14
2019-04-23T06:42:02.024Z,14.15
2019-04-23T06:43:05.295Z,14.18
2019-04-23T06:44:59.568Z,14.19
2019-04-23T06:46:05.397Z,14.29
2019-04-23T06:47:03.670Z,14.28
2019-04-23T06:48:08.997Z,14.37
2019-04-23T06:49:00.853Z,14.45
2019-04-23T06:50:00.124Z,14.43
2019-04-23T06:51:09.206Z,14.43
2019-04-23T06:52:18.336Z,14.47
2019-04-23T06:52:59.412Z,14.55
2019-04-23T06:54:04.388Z,14.53
2019-04-23T06:55:01.567Z,14.61
2019-04-23T06:56:06.753Z,14.62
2019-04-23T06:57:14.853Z,14.78
2019-04-23T06:58:08.397Z,14.65
2019-04-23T06:59:06.359Z,14.66
2019-04-23T06:59:59.177Z,14.78
2019-04-23T07:01:00.703Z,14.66
2019-04-23T07:02:06.203Z,14.79
2019-04-23T07:03:07.641Z,14.78
2019-04-23T07:04:05.235Z,14.78
2019-04-23T07:06:11.782Z,14.78
2019-04-23T07:07:25.645Z,14.77
2019-04-23T07:08:04.414Z,14.66
2019-04-23T07:09:10.583Z,14.79
2019-04-23T07:09:57.872Z,14.87
2019-04-23T07:11:11.836Z,14.81
2019-04-23T07:11:56.472Z,14.95
2019-04-23T07:13:02.771Z,14.89
2019-04-23T07:15:11.614Z,15.02
2019-04-23T07:16:04.670Z,15.07
2019-04-23T07:17:03.824Z,15.12
2019-04-23T07:18:04.372Z,15.07
2019-04-23T07:19:05.075Z,15.18
2019-04-23T07:20:00.232Z,15.19
2019-04-23T07:21:06.758Z,15.18
2019-04-23T07:22:06.647Z,15.33
2019-04-23T07:23:08.381Z,15.28
2019-04-23T07:25:08.190Z,15.39
2019-04-23T07:26:07.569Z,15.37
2019-04-23T07:26:53.124Z,15.40
2019-04-23T07:28:06.864Z,15.43
2019-04-23T07:29:00.557Z,15.42
2019-04-23T07:30:10.377Z,15.55
2019-04-23T07:31:07.363Z,15.62
2019-04-23T07:32:03.645Z,15.68
2019-04-23T07:33:04.524Z,15.75
2019-04-23T07:34:01.169Z,15.73
2019-04-23T07:35:07.186Z,15.87
2019-04-23T07:35:51.825Z,15.85
2019-04-23T07:38:20.677Z,16.05
2019-04-23T07:40:20.216Z,16.08
2019-04-23T07:41:08.720Z,16.05
2019-04-23T07:42:13.763Z,16.17
2019-04-23T07:43:03.189Z,16.12
2019-04-23T07:44:14.265Z,16.24
2019-04-23T07:45:02.063Z,16.24
2019-04-23T07:46:10.291Z,16.24
2019-04-23T07:48:13.257Z,16.29
2019-04-23T07:49:07.824Z,16.39
2019-04-23T07:50:19.228Z,16.41
2019-04-23T07:51:06.204Z,16.41
2019-04-23T07:52:12.982Z,16.53
2019-04-23T07:53:17.076Z,16.49
2019-04-23T07:55:08.322Z,16.53
2019-04-23T07:56:05.920Z,16.61
2019-04-23T07:57:08.918Z,16.62
2019-04-23T07:58:06.707Z,16.53
2019-04-23T07:59:07.281Z,16.64
2019-04-23T08:00:02.560Z,16.59
2019-04-23T08:01:13.803Z,16.69
2019-04-23T08:02:08.038Z,16.76
2019-04-23T08:03:13.560Z,16.72
2019-04-23T08:04:05.025Z,16.82
2019-04-23T08:05:13.081Z,16.90
2019-04-23T08:06:04.282Z,16.93
2019-04-23T08:07:00.834Z,16.89
2019-04-23T08:08:01.618Z,16.96
2019-04-23T08:09:03.579Z,17.02
2019-04-23T08:10:02.309Z,16.98
2019-04-23T08:11:23.434Z,17.09
2019-04-23T08:12:07.905Z,17.19
2019-04-23T08:13:10.317Z,17.16
2019-04-23T08:16:08.880Z,17.35
2019-04-23T08:16:58.327Z,17.38
2019-04-23T08:18:09.927Z,17.38
2019-04-23T08:18:57.617Z,17.38
2019-04-23T08:20:19.391Z,17.33
2019-04-23T08:21:00.879Z,17.37
2019-04-23T08:22:13.467Z,17.46
2019-04-23T08:23:01.899Z,17.49
2019-04-23T08:24:00.264Z,17.49
2019-04-23T08:25:08.468Z,17.49
2019-04-23T08:26:14.344Z,17.57
2019-04-23T08:27:04.664Z,17.60
2019-04-23T08:28:10.226Z,17.73
2019-04-23T08:29:12.242Z,17.73
2019-04-23T08:30:00.202Z,17.76
2019-04-23T08:31:00.557Z,17.82
2019-04-23T08:32:06.845Z,17.93
2019-04-23T08:33:03.716Z,17.93
2019-04-23T08:34:17.146Z,17.98
2019-04-23T08:35:01.309Z,17.95
2019-04-23T08:36:07.269Z,18.03
2019-04-23T08:37:05.064Z,18.05
2019-04-23T08:39:04.123Z,18.12
2019-04-23T08:41:10.228Z,18.18
2019-04-23T08:42:21.745Z,18.18
2019-04-23T08:43:09.051Z,18.19
2019-04-23T08:44:05.568Z,18.10
2019-04-23T08:45:12.775Z,18.18
2019-04-23T08:46:05.930Z,18.20
2019-04-23T08:48:09.259Z,18.26
2019-04-23T08:49:03.066Z,18.20
2019-04-23T08:49:57.967Z,18.44
2019-04-23T08:51:10.799Z,18.46
2019-04-23T08:52:07.132Z,18.55
2019-04-23T08:53:19.978Z,18.58
2019-04-23T08:54:10.640Z,18.66
2019-04-23T08:55:00.860Z,18.75
2019-04-23T08:56:15.079Z,18.74
2019-04-23T08:57:09.099Z,18.80
2019-04-23T08:57:56.159Z,18.92
2019-04-23T08:59:09.083Z,19.04
2019-04-23T09:00:17.790Z,19.11
2019-04-23T09:01:05.665Z,19.22
2019-04-23T09:03:04.610Z,19.27
2019-04-23T09:04:04.780Z,19.39
2019-04-23T09:05:16.206Z,19.39
2019-04-23T09:07:11.352Z,19.62
2019-04-23T09:08:08.306Z,19.60
2019-04-23T09:08:56.575Z,19.62
2019-04-23T09:10:07.807Z,19.64
2019-04-23T09:11:04.928Z,19.67
2019-04-23T09:11:59.541Z,19.73
2019-04-23T09:13:32.139Z,19.74
2019-04-23T09:14:05.654Z,19.70
2019-04-23T09:16:14.743Z,19.70
2019-04-23T09:17:11.429Z,19.76
2019-04-23T09:18:02.783Z,19.78
2019-04-23T09:19:10.593Z,19.94
2019-04-23T09:21:03.679Z,19.84
2019-04-23T09:22:07.203Z,19.82
2019-04-23T09:22:55.104Z,19.76
2019-04-23T09:24:00.715Z,19.73
2019-04-23T09:25:06.552Z,19.67
2019-04-23T09:25:57.543Z,19.66
2019-04-23T09:27:09.720Z,19.63
2019-04-23T09:28:00.352Z,19.74
2019-04-23T09:31:08.983Z,19.81
2019-04-23T09:33:07.968Z,19.94
2019-04-23T09:35:08.593Z,20.04
2019-04-23T09:36:02.732Z,20.09
2019-04-23T09:37:06.226Z,20.03
2019-04-23T09:37:59.638Z,20.07
2019-04-23T09:39:00.168Z,20.15
2019-04-23T09:40:13.992Z,20.24
2019-04-23T09:41:16.677Z,20.21
2019-04-23T09:42:05.506Z,20.25
2019-04-23T09:44:09.443Z,20.25
2019-04-23T09:45:03.853Z,20.24
2019-04-23T09:46:06.415Z,20.29
2019-04-23T09:47:06.579Z,20.37
2019-04-23T09:48:01.660Z,20.43
2019-04-23T09:49:09.783Z,20.50
2019-04-23T09:50:01.227Z,20.57
2019-04-23T09:51:03.133Z,20.56
2019-04-23T09:52:07.914Z,20.59
2019-04-23T09:54:04.440Z,20.44
2019-04-23T09:55:07.620Z,20.41
2019-04-23T09:55:51.326Z,20.44
2019-04-23T09:56:57.366Z,20.52
2019-04-23T09:58:06.079Z,20.57
2019-04-23T09:59:10.975Z,20.63
2019-04-23T10:00:25.601Z,20.69
2019-04-23T10:00:54.499Z,20.84
2019-04-23T10:01:52.883Z,21.03
2019-04-23T10:02:53.967Z,21.18
2019-04-23T10:03:47.812Z,21.06
2019-04-23T10:04:48.705Z,21.12
2019-04-23T10:05:46.050Z,21.06
2019-04-23T10:06:38.965Z,21.06
2019-04-23T10:07:44.509Z,21.18
2019-04-23T10:08:38.200Z,21.18
2019-04-23T10:09:34.308Z,21.35
2019-04-23T10:10:34.328Z,21.61
2019-04-23T10:11:34.588Z,21.70
2019-04-23T10:12:33.211Z,21.82
2019-04-23T10:13:34.400Z,22.04
2019-04-23T10:14:34.518Z,22.23
2019-04-23T10:15:37.170Z,22.41
2019-04-23T10:16:34.456Z,22.50
2019-04-23T10:17:34.085Z,22.66
2019-04-23T10:18:33.271Z,22.47
2019-04-23T10:19:33.138Z,22.56
2019-04-23T10:20:34.365Z,22.75
2019-04-23T10:21:33.436Z,22.80
2019-04-23T10:22:35.818Z,22.73
2019-04-23T10:23:33.453Z,22.68
2019-04-23T10:24:33.099Z,22.73
2019-04-23T10:25:34.138Z,22.93
2019-04-23T10:26:34.333Z,22.96
2019-04-23T10:27:33.048Z,22.98
2019-04-23T10:28:33.808Z,22.95
2019-04-23T10:29:34.259Z,23.05
2019-04-23T10:30:33.035Z,23.17
2019-04-23T10:31:33.499Z,23.18
2019-04-23T10:32:33.547Z,23.21
2019-04-23T10:33:34.350Z,23.14
2019-04-23T10:34:42.973Z,23.06
2019-04-23T10:35:44.556Z,23.18
2019-04-23T10:36:34.614Z,23.15
2019-04-23T10:37:44.801Z,23.14
2019-04-23T10:38:34.611Z,23.14
2019-04-23T10:39:38.874Z,22.98
2019-04-23T10:40:38.185Z,22.69
2019-04-23T10:41:35.807Z,22.58
2019-04-23T10:42:35.862Z,22.43
2019-04-23T10:43:38.376Z,22.47
2019-04-23T10:44:35.274Z,22.40
2019-04-23T10:45:44.798Z,22.32
2019-04-23T10:46:53.137Z,22.35
2019-04-23T10:49:10.796Z,22.35
2019-04-23T10:50:07.407Z,22.32
2019-04-23T10:51:00.259Z,22.23
2019-04-23T10:52:11.629Z,22.15
2019-04-23T10:53:09.239Z,22.17
2019-04-23T10:55:00.028Z,22.10
2019-04-23T10:56:02.793Z,22.11
2019-04-23T10:56:59.806Z,22.14
2019-04-23T10:58:01.928Z,22.20
2019-04-23T10:58:54.984Z,22.15
2019-04-23T11:00:00.040Z,22.25
2019-04-23T11:01:08.734Z,22.25
2019-04-23T11:02:20.122Z,22.30
2019-04-23T11:03:12.525Z,22.29
2019-04-23T11:04:36.126Z,22.14
2019-04-23T11:06:06.647Z,22.01
2019-04-23T11:07:09.971Z,22.03
2019-04-23T11:07:55.190Z,21.99
2019-04-23T11:09:05.871Z,21.85
2019-04-23T11:10:03.297Z,21.96
2019-04-23T11:11:12.156Z,21.92
2019-04-23T11:12:14.601Z,21.95
2019-04-23T11:13:25.790Z,21.99
2019-04-23T11:14:02.886Z,21.98
2019-04-23T11:15:11.149Z,21.98
2019-04-23T11:16:37.099Z,21.99
2019-04-23T11:17:03.627Z,21.82
2019-04-23T11:17:55.683Z,21.88
2019-04-23T11:18:56.682Z,21.88
2019-04-23T11:20:06.895Z,21.73
2019-04-23T11:21:07.408Z,21.81
2019-04-23T11:22:17.451Z,21.70
2019-04-23T11:22:54.901Z,21.74
2019-04-23T11:24:12.691Z,21.74
2019-04-23T11:25:12.099Z,21.88
2019-04-23T11:25:55.859Z,21.77
2019-04-23T11:27:07.845Z,21.76
2019-04-23T11:28:11.504Z,21.67
2019-04-23T11:29:01.653Z,21.69
2019-04-23T11:30:10.776Z,21.72
2019-04-23T11:30:57.366Z,21.61
2019-04-23T11:32:19.754Z,21.55
2019-04-23T11:35:18.191Z,21.40
2019-04-23T11:37:06.170Z,21.39
2019-04-23T11:38:29.088Z,21.48
2019-04-23T11:39:16.409Z,21.67
2019-04-23T11:41:04.131Z,21.57
2019-04-23T11:42:05.186Z,21.69
2019-04-23T11:44:56.557Z,21.70
2019-04-23T11:45:05.449Z,21.65
2019-04-23T11:46:10.537Z,21.67
2019-04-23T11:47:09.385Z,21.67
2019-04-23T11:48:26.388Z,21.72
2019-04-23T11:50:12.321Z,21.70
2019-04-23T11:51:10.663Z,21.69
2019-04-23T11:51:36.398Z,21.74
2019-04-23T11:53:06.719Z,21.58
2019-04-23T11:54:05.855Z,21.50
2019-04-23T11:55:09.427Z,21.36
2019-04-23T11:56:02.886Z,21.32
2019-04-23T11:57:22.448Z,21.30
2019-04-23T11:59:10.229Z,21.17
2019-04-23T11:59:59.496Z,21.27
2019-04-23T12:01:11.637Z,21.29
2019-04-23T12:02:19.369Z,21.37
2019-04-23T12:02:57.542Z,21.35
2019-04-23T12:05:11.665Z,21.30
2019-04-23T12:06:07.867Z,21.33
2019-04-23T12:07:04.727Z,21.30
2019-04-23T12:08:07.306Z,21.37
2019-04-23T12:08:56.597Z,21.32
2019-04-23T12:10:19.997Z,21.35
2019-04-23T12:11:58.258Z,21.27
2019-04-23T12:13:03.338Z,21.33
2019-04-23T12:14:10.173Z,21.26
2019-04-23T12:15:07.220Z,21.32
2019-04-23T12:16:00.572Z,21.39
2019-04-23T12:17:18.652Z,21.42
2019-04-23T12:17:59.089Z,21.42
2019-04-23T12:19:28.798Z,21.37
2019-04-23T12:20:06.039Z,21.35
2019-04-23T12:20:56.683Z,21.40
2019-04-23T12:23:12.217Z,21.51
2019-04-23T12:24:04.321Z,21.40
2019-04-23T12:26:02.998Z,21.26
2019-04-23T12:27:08.461Z,21.36
2019-04-23T12:27:46.935Z,21.35
2019-04-23T12:29:13.827Z,21.35
2019-04-23T12:30:00.796Z,21.27
2019-04-23T12:30:57.273Z,21.20
2019-04-23T12:32:16.113Z,21.21
2019-04-23T12:33:03.138Z,21.14
2019-04-23T12:35:03.666Z,21.15
2019-04-23T12:36:04.886Z,21.06
2019-04-23T12:37:21.368Z,21.08
2019-04-23T12:38:00.968Z,21.06
2019-04-23T12:39:04.356Z,21.00
2019-04-23T12:40:13.091Z,21.08
2019-04-23T12:40:57.839Z,21.14
2019-04-23T12:43:57.953Z,21.03
2019-04-23T12:45:05.166Z,21.05
2019-04-23T12:45:59.505Z,20.96
2019-04-23T12:47:09.852Z,20.96
2019-04-23T12:49:34.383Z,20.90
2019-04-23T12:50:31.164Z,20.87
2019-04-23T12:51:21.321Z,20.81
2019-04-23T12:52:03.632Z,20.67
2019-04-23T12:53:22.939Z,20.74
2019-04-23T12:53:57.760Z,20.60
2019-04-23T12:55:08.672Z,20.62
2019-04-23T12:56:20.372Z,20.47
2019-04-23T12:57:09.020Z,20.37
2019-04-23T12:58:01.868Z,20.28
2019-04-23T12:59:01.445Z,20.19
2019-04-23T13:01:05.490Z,20.11
2019-04-23T13:02:08.135Z,20.22
2019-04-23T13:02:55.459Z,20.09
2019-04-23T13:03:50.575Z,20.04
2019-04-23T13:05:00.538Z,20.01
2019-04-23T13:05:55.379Z,20.04
2019-04-23T13:07:00.199Z,20.04
2019-04-23T13:08:13.373Z,20.06
2019-04-23T13:09:01.361Z,19.97
2019-04-23T13:10:01.425Z,19.97
2019-04-23T13:10:59.349Z,19.94
2019-04-23T13:12:06.431Z,19.92
2019-04-23T13:13:09.447Z,19.89
2019-04-23T13:15:13.921Z,19.79
2019-04-23T13:17:19.931Z,19.79
2019-04-23T13:18:11.338Z,19.74
2019-04-23T13:19:24.220Z,19.85
2019-04-23T13:21:36.410Z,19.82
2019-04-23T13:22:16.439Z,19.88
2019-04-23T13:24:11.454Z,19.71
2019-04-23T13:25:09.476Z,19.76
2019-04-23T13:26:16.102Z,19.73
2019-04-23T13:27:12.047Z,19.73
2019-04-23T13:29:19.949Z,19.62
2019-04-23T13:30:17.036Z,19.73
2019-04-23T13:32:09.346Z,19.63
2019-04-23T13:34:17.620Z,19.66
2019-04-23T13:35:42.028Z,19.69
2019-04-23T13:36:17.545Z,19.67
2019-04-23T13:37:11.999Z,19.62
2019-04-23T13:38:19.588Z,19.55
2019-04-23T13:39:11.965Z,19.54
2019-04-23T13:40:09.588Z,19.59
2019-04-23T13:41:19.134Z,19.51
2019-04-23T13:42:19.820Z,19.60
2019-04-23T13:43:23.464Z,19.51
2019-04-23T13:44:10.024Z,19.59
2019-04-23T13:45:18.383Z,19.59
2019-04-23T13:47:25.034Z,19.60
2019-04-23T13:49:08.038Z,19.60
2019-04-23T13:50:28.114Z,19.60
2019-04-23T13:51:16.217Z,19.74
2019-04-23T13:52:38.034Z,19.69
2019-04-23T13:53:21.013Z,19.62
2019-04-23T13:54:24.070Z,19.60
2019-04-23T13:56:09.136Z,19.56
2019-04-23T13:57:44.019Z,19.59
2019-04-23T13:58:15.227Z,19.54
2019-04-23T13:59:29.044Z,19.56
2019-04-23T14:00:19.212Z,19.55
2019-04-23T14:01:20.066Z,19.49
2019-04-23T14:02:17.665Z,19.48
2019-04-23T14:03:13.282Z,19.46
2019-04-23T14:04:14.217Z,19.41
2019-04-23T14:05:17.781Z,19.31
2019-04-23T14:07:17.764Z,19.27
2019-04-23T14:08:22.817Z,19.33
2019-04-23T14:09:17.236Z,19.24
2019-04-23T14:11:19.763Z,19.31
2019-04-23T14:12:08.361Z,19.22
2019-04-23T14:13:31.174Z,19.12
2019-04-23T14:14:22.433Z,19.12
2019-04-23T14:15:11.705Z,19.09
2019-04-23T14:16:21.232Z,18.98
2019-04-23T14:17:26.922Z,19.07
2019-04-23T14:18:36.758Z,18.95
2019-04-23T14:19:02.438Z,19.00
2019-04-23T14:22:33.738Z,18.92
2019-04-23T14:24:18.226Z,18.85
2019-04-23T14:27:14.290Z,18.83
2019-04-23T14:28:21.674Z,18.83
2019-04-23T14:29:04.557Z,18.81
2019-04-23T14:30:21.781Z,18.78
2019-04-23T14:31:13.427Z,18.77
2019-04-23T14:32:20.832Z,18.78
2019-04-23T14:33:24.896Z,18.80
2019-04-23T14:35:18.516Z,18.74
2019-04-23T14:37:13.285Z,18.71
2019-04-23T14:39:10.054Z,18.70
2019-04-23T14:40:15.306Z,18.60
2019-04-23T14:41:31.919Z,18.67
2019-04-23T14:42:21.447Z,18.59
2019-04-23T14:43:15.027Z,18.58
2019-04-23T14:44:16.148Z,18.59
2019-04-23T14:45:18.815Z,18.59
2019-04-23T14:47:16.831Z,18.58
2019-04-23T14:49:26.902Z,18.44
2019-04-23T14:51:16.737Z,18.56
2019-04-23T14:52:12.099Z,18.56
2019-04-23T14:53:24.475Z,18.55
2019-04-23T14:54:12.921Z,18.60
2019-04-23T14:55:40.561Z,18.55
2019-04-23T14:56:13.118Z,18.49
2019-04-23T14:58:17.201Z,18.48
2019-04-23T14:59:07.884Z,18.55
2019-04-23T15:01:24.792Z,18.52
2019-04-23T15:02:16.071Z,18.43
2019-04-23T15:03:19.923Z,18.44
2019-04-23T15:04:01.604Z,18.40
2019-04-23T15:05:13.055Z,18.43
2019-04-23T15:06:28.211Z,18.43
2019-04-23T15:07:15.690Z,18.26
2019-04-23T15:08:15.269Z,18.44
2019-04-23T15:09:22.930Z,18.38
2019-04-23T15:10:17.900Z,18.34
2019-04-23T15:11:22.387Z,18.41
2019-04-23T15:12:20.848Z,18.38
2019-04-23T15:13:23.201Z,18.37
2019-04-23T15:14:23.340Z,18.40
2019-04-23T15:16:16.693Z,18.37
2019-04-23T15:17:18.888Z,18.33
2019-04-23T15:18:13.167Z,18.30
2019-04-23T15:20:11.919Z,18.22